WetterOnline ( https://www.wetteronline.de )

Wetter aktuell Kronach

Aktuelles Wetter: Neuhaus (851m)

6-stündlich | Neueste Meldungen
Ortszeit Temperatur Wetter
So, 05.07. 20:00 18.9° C wolkenlos
So, 05.07. 14:00 16.3° C bedeckt
So, 05.07. 8:00 15.0° C bedeckt
So, 05.07. 2:00 15.5° C leicht bewölkt
Sa, 04.07. 20:00 18.0° C bedeckt
Sa, 04.07. 14:00 17.6° C bedeckt
Sa, 04.07. 8:00 13.3° C bedeckt
Sa, 04.07. 2:00 11.7° C bewölkt
Ortszeit Temperatur Wetter
So, 05.07. 23:00 17.2° C bedeckt
So, 05.07. 22:30 17.4° C bedeckt
So, 05.07. 22:20 17.4° C bedeckt
So, 05.07. 22:10 17.5° C bewölkt
So, 05.07. 22:00 17.6° C bewölkt
So, 05.07. 21:50 17.6° C bedeckt
So, 05.07. 21:30 17.6° C bedeckt
So, 05.07. 21:00 17.7° C wolkig
Ortszeit Relative Feuchte Sichtweite
So, 05.07. 20:00 68% 65 km
So, 05.07. 14:00 86% 60 km
So, 05.07. 8:00 82% 55 km
So, 05.07. 2:00 70% 60 km
Sa, 04.07. 20:00 55% 55 km
Sa, 04.07. 14:00 57% 60 km
Sa, 04.07. 8:00 69% 60 km
Sa, 04.07. 2:00 78% 60 km
Ortszeit Relative Feuchte Sichtweite
So, 05.07. 23:00 78% >70 km
So, 05.07. 22:30 77% >70 km
So, 05.07. 22:20 77% -
So, 05.07. 22:10 77% -
So, 05.07. 22:00 76% >70 km
So, 05.07. 21:50 76% -
So, 05.07. 21:30 75% >70 km
So, 05.07. 21:00 75% >70 km
Ortszeit Niederschlagsmenge Niederschlagsart
So, 05.07. 20:00 0.1 l/m2 in 12 Std. Sprühregen
So, 05.07. 14:00 0.1 l/m2 in 6 Std. Regen
So, 05.07. 8:00 0.1 l/m2 in 12 Std. Sprühregen
So, 05.07. 2:00 0.0 l/m2 in 6 Std. -
Sa, 04.07. 20:00 0.0 l/m2 in 12 Std. -
Sa, 04.07. 14:00 0.0 l/m2 in 6 Std. -
Sa, 04.07. 8:00 0.0 l/m2 in 12 Std. -
Sa, 04.07. 2:00 0.0 l/m2 in 6 Std. -
Ortszeit Niederschlagsmenge Niederschlagsart
So, 05.07. 23:00 0.0 l/m2 in 1 Std. -
So, 05.07. 22:30 0.0 l/m2 in 1 Std. -
So, 05.07. 22:20 keine Meldung -
So, 05.07. 22:10 keine Meldung -
So, 05.07. 22:00 0.0 l/m2 in 1 Std. -
So, 05.07. 21:50 keine Meldung -
So, 05.07. 21:30 0.0 l/m2 in 1 Std. -
So, 05.07. 21:00 0.0 l/m2 in 1 Std. -
Ortszeit Stärke Spitze Richtung
km/h Bft. km/h Grad Sektor
So, 05.07. 20:00 22 4 50 230° SW
So, 05.07. 14:00 20 4 50 220° SW
So, 05.07. 8:00 18 3 47 220° SW
So, 05.07. 2:00 25 4 43 230° SW
Sa, 04.07. 20:00 20 4 50 220° SW
Sa, 04.07. 14:00 24 4 46 210° SW
Sa, 04.07. 8:00 17 3 31 230° SW
Sa, 04.07. 2:00 7 2 22 210° SW
Ortszeit Stärke Spitze Richtung
km/h Bft. km/h Grad Sektor
So, 05.07. 23:00 17 3 31 210° SW
So, 05.07. 22:30 17 3 31 220° SW
So, 05.07. 22:20 17 3 - 220° SW
So, 05.07. 22:10 15 3 - 220° SW
So, 05.07. 22:00 18 3 36 230° SW
So, 05.07. 21:50 18 3 - 230° SW
So, 05.07. 21:30 18 3 36 230° SW
So, 05.07. 21:00 20 4 43 230° SW
Ortszeit Untergrenze Bedeckung Gattung
total tief tief mittel hoch
So, 05.07. 20:00 - 0/8 0/8 - - -
So, 05.07. 14:00 330 m 8/8 8/8 - - -
So, 05.07. 8:00 390 m 8/8 8/8 - - -
So, 05.07. 2:00 570 m 4/8 4/8 - - -
Sa, 04.07. 20:00 3000 m 8/8 8/8 - - -
Sa, 04.07. 14:00 3600 m 8/8 8/8 - - -
Sa, 04.07. 8:00 5400 m 8/8 8/8 - - -
Sa, 04.07. 2:00 1440 m 7/8 7/8 - - -
Ortszeit Bedeckungsgrad in Achtel und Wolkenuntergrenze
So, 05.07. 23:00 7(720m) 8(930m) 8(1230m)
So, 05.07. 22:30 8(810m)
So, 05.07. 22:20 8(810m)
So, 05.07. 22:10 7(840m) 7(990m) 7(1470m)
So, 05.07. 22:00 7(930m) 8(1380m) 7(1410m)
So, 05.07. 21:50 7(930m) 8(1380m)
So, 05.07. 21:30 7(1170m) 8(1440m) 8(1500m)
So, 05.07. 21:00 4(1230m) 5(1800m)
Ortszeit Stationsdruck (hPa) Tendenz (hPa in 3 Std.)
So, 05.07. 20:00 917 - 0,9
So, 05.07. 14:00 919 0,0
So, 05.07. 8:00 918 - 0,1
So, 05.07. 2:00 919 - 0,6
Sa, 04.07. 20:00 920 - 0,2
Sa, 04.07. 14:00 921 - 0,9
Sa, 04.07. 8:00 921 + 0,1
Sa, 04.07. 2:00 922 0,0
Ortszeit Stationsdruck (hPa) Tendenz (hPa in 3 Std.)
So, 05.07. 23:00 917 0,0
So, 05.07. 22:30 917 + 0,1
So, 05.07. 22:20 917 keine Meldung
So, 05.07. 22:10 917 keine Meldung
So, 05.07. 22:00 917 - 0,2
So, 05.07. 21:50 917 keine Meldung
So, 05.07. 21:30 917 - 0,6
So, 05.07. 21:00 917 - 0,5
Ortszeit Schneehöhe (cm)
So, 05.07. 20:00 -
So, 05.07. 14:00 -
So, 05.07. 8:00 -
So, 05.07. 2:00 -
Sa, 04.07. 20:00 -
Sa, 04.07. 14:00 -
Sa, 04.07. 8:00 -
Sa, 04.07. 2:00 -
Ortszeit Schneehöhe (cm)
So, 05.07. 23:00 -
So, 05.07. 22:30 -
So, 05.07. 22:20 -
So, 05.07. 22:10 -
So, 05.07. 22:00 -
So, 05.07. 21:50 -
So, 05.07. 21:30 -
So, 05.07. 21:00 -
Link zu dieser Seite / Seite empfehlen

Das Wetter in ...